sensor_id;sensor_type;location;lat;lon;timestamp;P1;durP1;ratioP1;P2;durP2;ratioP2
42430;SDS011;71905;47.466;19.024;2024-02-26T00:02:30;31.90;;;22.95;;
42430;SDS011;71905;47.466;19.024;2024-02-26T00:05:04;34.92;;;24.23;;
42430;SDS011;71905;47.466;19.024;2024-02-26T00:07:33;32.88;;;22.73;;
42430;SDS011;71905;47.466;19.024;2024-02-26T00:10:03;32.88;;;23.80;;
42430;SDS011;71905;47.466;19.024;2024-02-26T00:12:31;29.38;;;21.85;;
42430;SDS011;71905;47.466;19.024;2024-02-26T00:14:59;30.75;;;21.75;;
42430;SDS011;71905;47.466;19.024;2024-02-26T00:17:27;29.33;;;21.08;;
42430;SDS011;71905;47.466;19.024;2024-02-26T00:19:55;30.05;;;20.70;;
42430;SDS011;71905;47.466;19.024;2024-02-26T00:22:23;28.75;;;20.35;;
42430;SDS011;71905;47.466;19.024;2024-02-26T00:24:51;25.58;;;17.95;;
42430;SDS011;71905;47.466;19.024;2024-02-26T00:27:21;29.20;;;19.08;;
42430;SDS011;71905;47.466;19.024;2024-02-26T00:29:49;25.98;;;19.17;;
42430;SDS011;71905;47.466;19.024;2024-02-26T00:32:16;27.95;;;19.88;;
42430;SDS011;71905;47.466;19.024;2024-02-26T00:34:44;27.75;;;19.95;;
42430;SDS011;71905;47.466;19.024;2024-02-26T00:37:12;25.50;;;19.13;;
42430;SDS011;71905;47.466;19.024;2024-02-26T00:39:40;26.38;;;19.25;;
42430;SDS011;71905;47.466;19.024;2024-02-26T00:42:08;26.85;;;19.55;;
42430;SDS011;71905;47.466;19.024;2024-02-26T00:44:38;28.25;;;18.75;;
42430;SDS011;71905;47.466;19.024;2024-02-26T00:47:06;27.60;;;19.42;;
42430;SDS011;71905;47.466;19.024;2024-02-26T00:49:34;24.83;;;18.30;;
42430;SDS011;71905;47.466;19.024;2024-02-26T00:52:02;25.02;;;17.95;;
42430;SDS011;71905;47.466;19.024;2024-02-26T00:54:30;26.17;;;18.05;;
42430;SDS011;71905;47.466;19.024;2024-02-26T00:56:58;24.70;;;18.15;;
42430;SDS011;71905;47.466;19.024;2024-02-26T00:59:27;23.88;;;17.95;;
42430;SDS011;71905;47.466;19.024;2024-02-26T01:01:56;24.48;;;17.98;;
42430;SDS011;71905;47.466;19.024;2024-02-26T01:04:25;25.42;;;18.05;;
42430;SDS011;71905;47.466;19.024;2024-02-26T01:06:54;24.95;;;17.98;;
42430;SDS011;71905;47.466;19.024;2024-02-26T01:09:22;26.98;;;16.95;;
42430;SDS011;71905;47.466;19.024;2024-02-26T01:11:50;24.70;;;17.08;;
42430;SDS011;71905;47.466;19.024;2024-02-26T01:14:18;22.40;;;16.50;;
42430;SDS011;71905;47.466;19.024;2024-02-26T01:16:46;21.75;;;16.30;;
42430;SDS011;71905;47.466;19.024;2024-02-26T01:19:16;27.20;;;18.75;;
42430;SDS011;71905;47.466;19.024;2024-02-26T01:21:44;25.92;;;17.75;;
42430;SDS011;71905;47.466;19.024;2024-02-26T01:24:12;27.73;;;19.50;;
42430;SDS011;71905;47.466;19.024;2024-02-26T01:26:40;25.40;;;17.80;;
42430;SDS011;71905;47.466;19.024;2024-02-26T01:29:08;24.98;;;17.33;;
42430;SDS011;71905;47.466;19.024;2024-02-26T01:31:36;25.08;;;16.95;;
42430;SDS011;71905;47.466;19.024;2024-02-26T01:34:04;23.73;;;17.23;;
42430;SDS011;71905;47.466;19.024;2024-02-26T01:36:33;22.23;;;16.33;;
42430;SDS011;71905;47.466;19.024;2024-02-26T01:39:02;23.77;;;16.52;;
42430;SDS011;71905;47.466;19.024;2024-02-26T01:41:30;24.15;;;16.67;;
42430;SDS011;71905;47.466;19.024;2024-02-26T01:43:58;25.75;;;16.13;;
42430;SDS011;71905;47.466;19.024;2024-02-26T01:46:26;23.25;;;16.23;;
42430;SDS011;71905;47.466;19.024;2024-02-26T01:48:54;24.02;;;17.83;;
42430;SDS011;71905;47.466;19.024;2024-02-26T01:51:22;24.52;;;17.27;;
42430;SDS011;71905;47.466;19.024;2024-02-26T01:53:52;25.02;;;17.80;;
42430;SDS011;71905;47.466;19.024;2024-02-26T01:56:21;26.05;;;18.27;;
42430;SDS011;71905;47.466;19.024;2024-02-26T01:58:54;27.05;;;18.35;;
42430;SDS011;71905;47.466;19.024;2024-02-26T02:01:25;24.80;;;17.73;;
42430;SDS011;71905;47.466;19.024;2024-02-26T02:03:53;24.92;;;17.65;;
42430;SDS011;71905;47.466;19.024;2024-02-26T02:06:21;25.00;;;17.73;;
42430;SDS011;71905;47.466;19.024;2024-02-26T02:08:50;24.52;;;17.92;;
42430;SDS011;71905;47.466;19.024;2024-02-26T02:11:20;27.52;;;18.95;;
42430;SDS011;71905;47.466;19.024;2024-02-26T02:13:48;25.27;;;17.85;;
42430;SDS011;71905;47.466;19.024;2024-02-26T02:16:17;24.63;;;17.42;;
42430;SDS011;71905;47.466;19.024;2024-02-26T02:18:45;24.00;;;16.50;;
42430;SDS011;71905;47.466;19.024;2024-02-26T02:21:15;26.05;;;19.02;;
42430;SDS011;71905;47.466;19.024;2024-02-26T02:23:44;24.08;;;17.08;;
42430;SDS011;71905;47.466;19.024;2024-02-26T02:26:13;24.05;;;17.38;;
42430;SDS011;71905;47.466;19.024;2024-02-26T02:28:42;25.23;;;18.65;;
42430;SDS011;71905;47.466;19.024;2024-02-26T02:31:10;28.25;;;19.35;;
42430;SDS011;71905;47.466;19.024;2024-02-26T02:33:38;25.63;;;18.15;;
42430;SDS011;71905;47.466;19.024;2024-02-26T02:36:06;27.23;;;19.23;;
42430;SDS011;71905;47.466;19.024;2024-02-26T02:38:38;27.02;;;18.70;;
42430;SDS011;71905;47.466;19.024;2024-02-26T02:41:16;28.30;;;19.23;;
42430;SDS011;71905;47.466;19.024;2024-02-26T02:43:44;25.58;;;18.10;;
42430;SDS011;71905;47.466;19.024;2024-02-26T02:46:12;29.77;;;21.08;;
42430;SDS011;71905;47.466;19.024;2024-02-26T02:51:41;29.98;;;20.90;;
42430;SDS011;71905;47.466;19.024;2024-02-26T02:54:10;28.45;;;20.83;;
42430;SDS011;71905;47.466;19.024;2024-02-26T02:56:38;27.75;;;19.35;;
42430;SDS011;71905;47.466;19.024;2024-02-26T02:59:06;27.60;;;19.63;;
42430;SDS011;71905;47.466;19.024;2024-02-26T03:01:36;25.08;;;17.70;;
42430;SDS011;71905;47.466;19.024;2024-02-26T03:04:04;28.83;;;19.25;;
42430;SDS011;71905;47.466;19.024;2024-02-26T03:06:32;30.58;;;21.23;;
42430;SDS011;71905;47.466;19.024;2024-02-26T03:09:00;27.85;;;19.30;;
42430;SDS011;71905;47.466;19.024;2024-02-26T03:11:30;31.23;;;21.48;;
42430;SDS011;71905;47.466;19.024;2024-02-26T03:13:58;27.55;;;19.00;;
42430;SDS011;71905;47.466;19.024;2024-02-26T03:16:26;26.25;;;18.52;;
42430;SDS011;71905;47.466;19.024;2024-02-26T03:18:54;26.90;;;18.45;;
42430;SDS011;71905;47.466;19.024;2024-02-26T03:21:22;28.83;;;19.73;;
42430;SDS011;71905;47.466;19.024;2024-02-26T03:23:50;27.38;;;18.80;;
42430;SDS011;71905;47.466;19.024;2024-02-26T03:26:18;29.48;;;21.60;;
42430;SDS011;71905;47.466;19.024;2024-02-26T03:28:48;32.50;;;23.05;;
42430;SDS011;71905;47.466;19.024;2024-02-26T03:31:16;31.83;;;21.67;;
42430;SDS011;71905;47.466;19.024;2024-02-26T03:33:44;34.92;;;25.30;;
42430;SDS011;71905;47.466;19.024;2024-02-26T03:36:12;36.45;;;24.45;;
42430;SDS011;71905;47.466;19.024;2024-02-26T03:38:40;31.20;;;21.73;;
42430;SDS011;71905;47.466;19.024;2024-02-26T03:41:08;35.50;;;22.67;;
42430;SDS011;71905;47.466;19.024;2024-02-26T03:43:36;28.52;;;20.50;;
42430;SDS011;71905;47.466;19.024;2024-02-26T03:46:08;29.75;;;19.90;;
42430;SDS011;71905;47.466;19.024;2024-02-26T03:48:37;26.92;;;19.13;;
42430;SDS011;71905;47.466;19.024;2024-02-26T03:51:06;27.27;;;19.50;;
42430;SDS011;71905;47.466;19.024;2024-02-26T03:53:36;31.33;;;21.38;;
42430;SDS011;71905;47.466;19.024;2024-02-26T03:56:04;32.75;;;21.65;;
42430;SDS011;71905;47.466;19.024;2024-02-26T03:58:33;34.55;;;23.70;;
42430;SDS011;71905;47.466;19.024;2024-02-26T04:01:01;29.73;;;21.85;;
42430;SDS011;71905;47.466;19.024;2024-02-26T04:03:30;30.80;;;20.77;;
42430;SDS011;71905;47.466;19.024;2024-02-26T04:05:59;35.25;;;24.05;;
42430;SDS011;71905;47.466;19.024;2024-02-26T04:08:29;32.10;;;22.40;;
42430;SDS011;71905;47.466;19.024;2024-02-26T04:10:58;30.20;;;22.20;;
42430;SDS011;71905;47.466;19.024;2024-02-26T04:13:26;34.22;;;22.58;;
42430;SDS011;71905;47.466;19.024;2024-02-26T04:16:08;29.25;;;20.83;;
42430;SDS011;71905;47.466;19.024;2024-02-26T04:18:38;31.73;;;22.10;;
42430;SDS011;71905;47.466;19.024;2024-02-26T04:21:09;28.20;;;20.25;;
42430;SDS011;71905;47.466;19.024;2024-02-26T04:24:29;28.58;;;19.98;;
42430;SDS011;71905;47.466;19.024;2024-02-26T04:26:57;27.38;;;20.25;;
42430;SDS011;71905;47.466;19.024;2024-02-26T04:29:25;27.30;;;19.17;;
42430;SDS011;71905;47.466;19.024;2024-02-26T04:31:54;24.65;;;18.40;;
42430;SDS011;71905;47.466;19.024;2024-02-26T04:34:28;25.30;;;18.73;;
42430;SDS011;71905;47.466;19.024;2024-02-26T04:37:06;22.13;;;16.85;;
42430;SDS011;71905;47.466;19.024;2024-02-26T04:39:44;25.05;;;17.67;;
42430;SDS011;71905;47.466;19.024;2024-02-26T04:42:16;24.25;;;17.20;;
42430;SDS011;71905;47.466;19.024;2024-02-26T04:44:44;23.50;;;16.40;;
42430;SDS011;71905;47.466;19.024;2024-02-26T04:47:22;23.13;;;16.13;;
42430;SDS011;71905;47.466;19.024;2024-02-26T04:49:58;23.67;;;17.27;;
42430;SDS011;71905;47.466;19.024;2024-02-26T04:52:27;22.58;;;16.15;;
42430;SDS011;71905;47.466;19.024;2024-02-26T04:54:57;23.92;;;17.17;;
42430;SDS011;71905;47.466;19.024;2024-02-26T04:57:31;23.75;;;16.60;;
42430;SDS011;71905;47.466;19.024;2024-02-26T05:00:02;24.13;;;16.75;;
42430;SDS011;71905;47.466;19.024;2024-02-26T05:02:31;23.00;;;16.23;;
42430;SDS011;71905;47.466;19.024;2024-02-26T05:05:06;21.13;;;15.18;;
42430;SDS011;71905;47.466;19.024;2024-02-26T05:07:39;20.65;;;14.35;;
42430;SDS011;71905;47.466;19.024;2024-02-26T05:10:07;22.85;;;17.10;;
42430;SDS011;71905;47.466;19.024;2024-02-26T05:12:35;20.10;;;14.65;;
42430;SDS011;71905;47.466;19.024;2024-02-26T05:15:04;18.70;;;14.38;;
42430;SDS011;71905;47.466;19.024;2024-02-26T05:17:32;18.25;;;14.30;;
42430;SDS011;71905;47.466;19.024;2024-02-26T05:20:00;21.38;;;15.40;;
42430;SDS011;71905;47.466;19.024;2024-02-26T05:22:30;24.02;;;16.13;;
42430;SDS011;71905;47.466;19.024;2024-02-26T05:24:59;27.60;;;19.13;;
42430;SDS011;71905;47.466;19.024;2024-02-26T05:27:27;23.80;;;16.92;;
42430;SDS011;71905;47.466;19.024;2024-02-26T05:29:55;22.35;;;15.75;;
42430;SDS011;71905;47.466;19.024;2024-02-26T05:32:23;22.42;;;15.73;;
42430;SDS011;71905;47.466;19.024;2024-02-26T05:34:51;22.38;;;16.27;;
42430;SDS011;71905;47.466;19.024;2024-02-26T05:37:19;20.38;;;14.73;;
42430;SDS011;71905;47.466;19.024;2024-02-26T05:39:49;21.58;;;16.20;;
42430;SDS011;71905;47.466;19.024;2024-02-26T05:42:17;21.33;;;15.13;;
42430;SDS011;71905;47.466;19.024;2024-02-26T05:44:45;22.13;;;16.77;;
42430;SDS011;71905;47.466;19.024;2024-02-26T05:47:13;24.75;;;17.38;;
42430;SDS011;71905;47.466;19.024;2024-02-26T05:49:41;25.42;;;18.05;;
42430;SDS011;71905;47.466;19.024;2024-02-26T05:52:09;27.40;;;18.02;;
42430;SDS011;71905;47.466;19.024;2024-02-26T05:54:37;28.27;;;19.42;;
42430;SDS011;71905;47.466;19.024;2024-02-26T05:57:06;31.10;;;20.40;;
42430;SDS011;71905;47.466;19.024;2024-02-26T05:59:34;34.25;;;22.05;;
42430;SDS011;71905;47.466;19.024;2024-02-26T06:02:02;31.20;;;21.20;;
42430;SDS011;71905;47.466;19.024;2024-02-26T06:04:31;32.63;;;22.10;;
42430;SDS011;71905;47.466;19.024;2024-02-26T06:06:59;30.35;;;21.17;;
42430;SDS011;71905;47.466;19.024;2024-02-26T06:09:27;30.58;;;21.58;;
42430;SDS011;71905;47.466;19.024;2024-02-26T06:11:55;32.15;;;21.30;;
42430;SDS011;71905;47.466;19.024;2024-02-26T06:14:24;29.75;;;20.60;;
42430;SDS011;71905;47.466;19.024;2024-02-26T06:16:52;29.55;;;19.95;;
42430;SDS011;71905;47.466;19.024;2024-02-26T06:19:20;33.83;;;21.90;;
42430;SDS011;71905;47.466;19.024;2024-02-26T06:21:49;30.00;;;20.83;;
42430;SDS011;71905;47.466;19.024;2024-02-26T06:24:17;27.85;;;19.60;;
42430;SDS011;71905;47.466;19.024;2024-02-26T06:26:47;29.30;;;20.02;;
42430;SDS011;71905;47.466;19.024;2024-02-26T06:29:15;31.73;;;20.20;;
42430;SDS011;71905;47.466;19.024;2024-02-26T06:31:44;29.25;;;20.30;;
42430;SDS011;71905;47.466;19.024;2024-02-26T06:34:14;30.50;;;20.33;;
42430;SDS011;71905;47.466;19.024;2024-02-26T06:36:42;29.77;;;19.85;;
42430;SDS011;71905;47.466;19.024;2024-02-26T06:39:10;28.25;;;18.90;;
42430;SDS011;71905;47.466;19.024;2024-02-26T06:41:39;27.58;;;18.40;;
42430;SDS011;71905;47.466;19.024;2024-02-26T06:44:07;27.90;;;19.42;;
42430;SDS011;71905;47.466;19.024;2024-02-26T06:46:35;29.30;;;19.90;;
42430;SDS011;71905;47.466;19.024;2024-02-26T06:49:05;29.10;;;19.08;;
42430;SDS011;71905;47.466;19.024;2024-02-26T06:51:33;30.52;;;20.33;;
42430;SDS011;71905;47.466;19.024;2024-02-26T06:54:01;28.52;;;19.08;;
42430;SDS011;71905;47.466;19.024;2024-02-26T06:56:29;27.08;;;19.05;;
42430;SDS011;71905;47.466;19.024;2024-02-26T06:58:57;27.45;;;19.45;;
42430;SDS011;71905;47.466;19.024;2024-02-26T07:01:25;28.85;;;19.23;;
42430;SDS011;71905;47.466;19.024;2024-02-26T07:03:54;38.72;;;26.50;;
42430;SDS011;71905;47.466;19.024;2024-02-26T07:06:23;33.55;;;23.00;;
42430;SDS011;71905;47.466;19.024;2024-02-26T07:08:51;32.58;;;20.98;;
42430;SDS011;71905;47.466;19.024;2024-02-26T07:11:19;29.25;;;20.50;;
42430;SDS011;71905;47.466;19.024;2024-02-26T07:13:47;29.02;;;18.73;;
42430;SDS011;71905;47.466;19.024;2024-02-26T07:16:16;30.40;;;20.35;;
42430;SDS011;71905;47.466;19.024;2024-02-26T07:18:44;30.35;;;19.73;;
42430;SDS011;71905;47.466;19.024;2024-02-26T07:21:12;28.80;;;20.17;;
42430;SDS011;71905;47.466;19.024;2024-02-26T07:23:42;28.48;;;20.50;;
42430;SDS011;71905;47.466;19.024;2024-02-26T07:26:10;29.33;;;20.83;;
42430;SDS011;71905;47.466;19.024;2024-02-26T07:28:38;30.15;;;21.17;;
42430;SDS011;71905;47.466;19.024;2024-02-26T07:31:06;32.42;;;22.27;;
42430;SDS011;71905;47.466;19.024;2024-02-26T07:33:34;29.88;;;21.45;;
42430;SDS011;71905;47.466;19.024;2024-02-26T07:36:02;32.20;;;20.73;;
42430;SDS011;71905;47.466;19.024;2024-02-26T07:38:31;31.80;;;23.48;;
42430;SDS011;71905;47.466;19.024;2024-02-26T07:41:11;40.08;;;27.42;;
42430;SDS011;71905;47.466;19.024;2024-02-26T07:43:39;32.55;;;24.13;;
42430;SDS011;71905;47.466;19.024;2024-02-26T07:46:08;34.47;;;23.63;;
42430;SDS011;71905;47.466;19.024;2024-02-26T07:48:39;37.45;;;24.88;;
42430;SDS011;71905;47.466;19.024;2024-02-26T07:51:08;40.45;;;26.92;;
42430;SDS011;71905;47.466;19.024;2024-02-26T07:53:36;36.30;;;26.45;;
42430;SDS011;71905;47.466;19.024;2024-02-26T07:56:04;37.88;;;26.08;;
42430;SDS011;71905;47.466;19.024;2024-02-26T07:58:34;35.10;;;27.02;;
42430;SDS011;71905;47.466;19.024;2024-02-26T08:01:02;40.88;;;28.45;;
42430;SDS011;71905;47.466;19.024;2024-02-26T08:03:30;39.70;;;27.80;;
42430;SDS011;71905;47.466;19.024;2024-02-26T08:05:59;35.70;;;27.08;;
42430;SDS011;71905;47.466;19.024;2024-02-26T08:08:27;34.25;;;26.67;;
42430;SDS011;71905;47.466;19.024;2024-02-26T08:10:55;39.30;;;29.35;;
42430;SDS011;71905;47.466;19.024;2024-02-26T08:13:23;35.85;;;26.92;;
42430;SDS011;71905;47.466;19.024;2024-02-26T08:15:53;34.47;;;26.30;;
42430;SDS011;71905;47.466;19.024;2024-02-26T08:18:21;39.90;;;28.67;;
42430;SDS011;71905;47.466;19.024;2024-02-26T08:20:49;40.85;;;29.63;;
42430;SDS011;71905;47.466;19.024;2024-02-26T08:23:17;36.13;;;27.65;;
42430;SDS011;71905;47.466;19.024;2024-02-26T08:25:45;38.55;;;27.98;;
42430;SDS011;71905;47.466;19.024;2024-02-26T08:28:13;39.10;;;28.58;;
42430;SDS011;71905;47.466;19.024;2024-02-26T08:30:44;39.63;;;28.48;;
42430;SDS011;71905;47.466;19.024;2024-02-26T08:33:13;40.17;;;29.60;;
42430;SDS011;71905;47.466;19.024;2024-02-26T08:35:42;40.50;;;28.95;;
42430;SDS011;71905;47.466;19.024;2024-02-26T08:38:10;39.17;;;28.83;;
42430;SDS011;71905;47.466;19.024;2024-02-26T08:40:38;40.20;;;28.88;;
42430;SDS011;71905;47.466;19.024;2024-02-26T08:43:07;41.78;;;30.10;;
42430;SDS011;71905;47.466;19.024;2024-02-26T08:45:35;41.38;;;32.00;;
42430;SDS011;71905;47.466;19.024;2024-02-26T08:48:04;46.00;;;31.35;;
42430;SDS011;71905;47.466;19.024;2024-02-26T08:50:33;40.35;;;31.23;;
42430;SDS011;71905;47.466;19.024;2024-02-26T08:53:01;40.35;;;30.15;;
42430;SDS011;71905;47.466;19.024;2024-02-26T08:55:33;42.22;;;29.70;;
42430;SDS011;71905;47.466;19.024;2024-02-26T08:58:01;38.00;;;27.70;;
42430;SDS011;71905;47.466;19.024;2024-02-26T09:00:30;38.05;;;29.48;;
42430;SDS011;71905;47.466;19.024;2024-02-26T09:02:59;37.80;;;29.05;;
42430;SDS011;71905;47.466;19.024;2024-02-26T09:05:31;35.97;;;27.67;;
42430;SDS011;71905;47.466;19.024;2024-02-26T09:08:00;37.63;;;27.27;;
42430;SDS011;71905;47.466;19.024;2024-02-26T09:10:29;36.28;;;26.98;;
42430;SDS011;71905;47.466;19.024;2024-02-26T09:12:57;33.60;;;26.13;;
42430;SDS011;71905;47.466;19.024;2024-02-26T09:15:25;35.78;;;28.08;;
42430;SDS011;71905;47.466;19.024;2024-02-26T09:17:53;33.78;;;27.50;;
42430;SDS011;71905;47.466;19.024;2024-02-26T09:20:21;33.53;;;26.73;;
42430;SDS011;71905;47.466;19.024;2024-02-26T09:22:50;37.13;;;28.48;;
42430;SDS011;71905;47.466;19.024;2024-02-26T09:25:19;35.85;;;25.98;;
42430;SDS011;71905;47.466;19.024;2024-02-26T09:27:47;35.83;;;27.38;;
42430;SDS011;71905;47.466;19.024;2024-02-26T09:30:15;36.95;;;27.65;;
42430;SDS011;71905;47.466;19.024;2024-02-26T09:32:46;36.83;;;27.98;;
42430;SDS011;71905;47.466;19.024;2024-02-26T09:35:14;33.60;;;26.65;;
42430;SDS011;71905;47.466;19.024;2024-02-26T09:37:43;37.05;;;26.70;;
42430;SDS011;71905;47.466;19.024;2024-02-26T09:40:11;31.67;;;26.63;;
42430;SDS011;71905;47.466;19.024;2024-02-26T09:42:42;42.15;;;28.65;;
42430;SDS011;71905;47.466;19.024;2024-02-26T09:45:14;35.17;;;27.13;;
42430;SDS011;71905;47.466;19.024;2024-02-26T09:47:46;35.42;;;27.48;;
42430;SDS011;71905;47.466;19.024;2024-02-26T09:50:16;35.75;;;28.30;;
42430;SDS011;71905;47.466;19.024;2024-02-26T09:52:49;36.55;;;30.15;;
42430;SDS011;71905;47.466;19.024;2024-02-26T09:55:19;36.80;;;29.88;;
42430;SDS011;71905;47.466;19.024;2024-02-26T09:57:48;37.92;;;30.38;;
42430;SDS011;71905;47.466;19.024;2024-02-26T10:00:20;38.40;;;30.33;;
42430;SDS011;71905;47.466;19.024;2024-02-26T10:02:49;38.20;;;30.73;;
42430;SDS011;71905;47.466;19.024;2024-02-26T10:05:19;39.53;;;31.15;;
42430;SDS011;71905;47.466;19.024;2024-02-26T10:07:47;35.47;;;28.75;;
42430;SDS011;71905;47.466;19.024;2024-02-26T10:10:16;35.00;;;29.00;;
42430;SDS011;71905;47.466;19.024;2024-02-26T10:12:45;36.92;;;29.50;;
42430;SDS011;71905;47.466;19.024;2024-02-26T10:15:14;37.80;;;30.65;;
42430;SDS011;71905;47.466;19.024;2024-02-26T10:17:43;40.33;;;33.80;;
42430;SDS011;71905;47.466;19.024;2024-02-26T10:20:11;36.55;;;29.42;;
42430;SDS011;71905;47.466;19.024;2024-02-26T10:22:41;34.58;;;28.27;;
42430;SDS011;71905;47.466;19.024;2024-02-26T10:25:10;39.42;;;29.33;;
42430;SDS011;71905;47.466;19.024;2024-02-26T10:27:39;35.53;;;28.10;;
42430;SDS011;71905;47.466;19.024;2024-02-26T10:30:16;35.60;;;27.52;;
42430;SDS011;71905;47.466;19.024;2024-02-26T10:32:46;34.45;;;28.70;;
42430;SDS011;71905;47.466;19.024;2024-02-26T10:35:16;34.90;;;28.92;;
42430;SDS011;71905;47.466;19.024;2024-02-26T10:37:44;42.00;;;29.85;;
42430;SDS011;71905;47.466;19.024;2024-02-26T10:40:14;35.45;;;27.45;;
42430;SDS011;71905;47.466;19.024;2024-02-26T10:42:43;34.00;;;26.92;;
42430;SDS011;71905;47.466;19.024;2024-02-26T10:45:12;30.90;;;24.67;;
42430;SDS011;71905;47.466;19.024;2024-02-26T10:47:41;30.33;;;21.95;;
42430;SDS011;71905;47.466;19.024;2024-02-26T10:50:09;27.33;;;21.23;;
42430;SDS011;71905;47.466;19.024;2024-02-26T10:52:44;35.83;;;23.33;;
42430;SDS011;71905;47.466;19.024;2024-02-26T10:55:15;29.10;;;21.95;;
42430;SDS011;71905;47.466;19.024;2024-02-26T10:57:46;31.13;;;21.67;;
42430;SDS011;71905;47.466;19.024;2024-02-26T11:00:15;24.75;;;19.52;;
42430;SDS011;71905;47.466;19.024;2024-02-26T11:02:46;27.58;;;18.73;;
42430;SDS011;71905;47.466;19.024;2024-02-26T11:05:15;23.00;;;17.67;;
42430;SDS011;71905;47.466;19.024;2024-02-26T11:07:45;24.02;;;16.35;;
42430;SDS011;71905;47.466;19.024;2024-02-26T11:10:14;30.35;;;19.52;;
42430;SDS011;71905;47.466;19.024;2024-02-26T11:12:45;28.98;;;21.13;;
42430;SDS011;71905;47.466;19.024;2024-02-26T11:15:14;27.02;;;20.90;;
42430;SDS011;71905;47.466;19.024;2024-02-26T11:17:43;25.52;;;19.92;;
42430;SDS011;71905;47.466;19.024;2024-02-26T11:20:14;26.52;;;18.98;;
42430;SDS011;71905;47.466;19.024;2024-02-26T11:22:42;24.13;;;20.10;;
42430;SDS011;71905;47.466;19.024;2024-02-26T11:25:10;19.30;;;15.88;;
42430;SDS011;71905;47.466;19.024;2024-02-26T11:27:40;19.05;;;15.40;;
42430;SDS011;71905;47.466;19.024;2024-02-26T11:30:12;25.10;;;17.92;;
42430;SDS011;71905;47.466;19.024;2024-02-26T11:32:44;25.58;;;19.40;;
42430;SDS011;71905;47.466;19.024;2024-02-26T11:35:15;26.92;;;18.50;;
42430;SDS011;71905;47.466;19.024;2024-02-26T11:37:51;21.75;;;17.33;;
42430;SDS011;71905;47.466;19.024;2024-02-26T11:40:21;15.73;;;11.57;;
42430;SDS011;71905;47.466;19.024;2024-02-26T11:42:51;16.70;;;12.65;;
42430;SDS011;71905;47.466;19.024;2024-02-26T11:48:29;15.88;;;10.80;;
42430;SDS011;71905;47.466;19.024;2024-02-26T11:50:57;13.75;;;11.57;;
42430;SDS011;71905;47.466;19.024;2024-02-26T11:53:26;16.48;;;10.73;;
42430;SDS011;71905;47.466;19.024;2024-02-26T11:58:59;12.68;;;10.25;;
42430;SDS011;71905;47.466;19.024;2024-02-26T12:01:38;12.98;;;10.07;;
42430;SDS011;71905;47.466;19.024;2024-02-26T12:04:15;11.65;;;9.68;;
42430;SDS011;71905;47.466;19.024;2024-02-26T12:06:46;19.65;;;11.35;;
42430;SDS011;71905;47.466;19.024;2024-02-26T12:09:30;17.83;;;10.95;;
42430;SDS011;71905;47.466;19.024;2024-02-26T12:12:00;15.65;;;10.02;;
42430;SDS011;71905;47.466;19.024;2024-02-26T12:14:29;15.73;;;9.80;;
42430;SDS011;71905;47.466;19.024;2024-02-26T12:16:57;9.70;;;7.80;;
42430;SDS011;71905;47.466;19.024;2024-02-26T12:19:27;18.60;;;9.55;;
42430;SDS011;71905;47.466;19.024;2024-02-26T12:21:56;12.88;;;8.63;;
42430;SDS011;71905;47.466;19.024;2024-02-26T12:24:24;11.25;;;8.10;;
42430;SDS011;71905;47.466;19.024;2024-02-26T12:26:52;14.20;;;8.38;;
42430;SDS011;71905;47.466;19.024;2024-02-26T12:29:20;12.85;;;7.88;;
42430;SDS011;71905;47.466;19.024;2024-02-26T12:31:48;9.65;;;7.78;;
42430;SDS011;71905;47.466;19.024;2024-02-26T12:34:16;10.55;;;6.50;;
42430;SDS011;71905;47.466;19.024;2024-02-26T12:36:46;14.00;;;8.13;;
42430;SDS011;71905;47.466;19.024;2024-02-26T12:39:14;14.00;;;7.90;;
42430;SDS011;71905;47.466;19.024;2024-02-26T12:41:42;9.63;;;7.38;;
42430;SDS011;71905;47.466;19.024;2024-02-26T12:44:15;11.10;;;8.07;;
42430;SDS011;71905;47.466;19.024;2024-02-26T12:46:44;11.55;;;7.70;;
42430;SDS011;71905;47.466;19.024;2024-02-26T12:49:14;15.35;;;7.90;;
42430;SDS011;71905;47.466;19.024;2024-02-26T12:51:43;9.63;;;7.30;;
42430;SDS011;71905;47.466;19.024;2024-02-26T12:54:13;14.65;;;7.93;;
42430;SDS011;71905;47.466;19.024;2024-02-26T12:56:41;12.73;;;8.15;;
42430;SDS011;71905;47.466;19.024;2024-02-26T12:59:10;13.55;;;8.20;;
42430;SDS011;71905;47.466;19.024;2024-02-26T13:01:38;12.27;;;7.90;;
42430;SDS011;71905;47.466;19.024;2024-02-26T13:04:06;11.35;;;7.68;;
42430;SDS011;71905;47.466;19.024;2024-02-26T13:06:34;17.08;;;8.02;;
42430;SDS011;71905;47.466;19.024;2024-02-26T13:09:04;12.95;;;8.10;;
42430;SDS011;71905;47.466;19.024;2024-02-26T13:11:34;12.73;;;7.85;;
42430;SDS011;71905;47.466;19.024;2024-02-26T13:14:02;10.38;;;7.68;;
42430;SDS011;71905;47.466;19.024;2024-02-26T13:16:34;12.50;;;8.20;;
42430;SDS011;71905;47.466;19.024;2024-02-26T13:19:08;12.55;;;8.35;;
42430;SDS011;71905;47.466;19.024;2024-02-26T13:21:40;9.27;;;7.45;;
42430;SDS011;71905;47.466;19.024;2024-02-26T13:24:12;9.95;;;7.55;;
42430;SDS011;71905;47.466;19.024;2024-02-26T13:26:40;11.10;;;7.65;;
42430;SDS011;71905;47.466;19.024;2024-02-26T13:29:08;9.35;;;7.28;;
42430;SDS011;71905;47.466;19.024;2024-02-26T13:31:43;12.27;;;6.88;;
42430;SDS011;71905;47.466;19.024;2024-02-26T13:34:22;12.45;;;7.47;;
42430;SDS011;71905;47.466;19.024;2024-02-26T13:36:52;8.82;;;7.53;;
42430;SDS011;71905;47.466;19.024;2024-02-26T13:39:25;9.27;;;6.55;;
42430;SDS011;71905;47.466;19.024;2024-02-26T13:41:54;7.85;;;6.50;;
42430;SDS011;71905;47.466;19.024;2024-02-26T13:44:23;10.48;;;7.70;;
42430;SDS011;71905;47.466;19.024;2024-02-26T13:46:51;9.07;;;6.93;;
42430;SDS011;71905;47.466;19.024;2024-02-26T13:49:19;14.68;;;7.70;;
42430;SDS011;71905;47.466;19.024;2024-02-26T13:51:48;13.75;;;7.63;;
42430;SDS011;71905;47.466;19.024;2024-02-26T13:54:16;11.13;;;7.05;;
42430;SDS011;71905;47.466;19.024;2024-02-26T13:56:45;9.27;;;6.93;;
42430;SDS011;71905;47.466;19.024;2024-02-26T13:59:14;10.35;;;7.82;;
42430;SDS011;71905;47.466;19.024;2024-02-26T14:01:42;9.60;;;7.60;;
42430;SDS011;71905;47.466;19.024;2024-02-26T14:04:10;9.52;;;8.52;;
42430;SDS011;71905;47.466;19.024;2024-02-26T14:06:38;9.60;;;8.02;;
42430;SDS011;71905;47.466;19.024;2024-02-26T14:09:07;14.43;;;8.65;;
42430;SDS011;71905;47.466;19.024;2024-02-26T14:11:35;20.77;;;8.70;;
42430;SDS011;71905;47.466;19.024;2024-02-26T14:14:05;13.40;;;7.82;;
42430;SDS011;71905;47.466;19.024;2024-02-26T14:16:33;12.77;;;8.05;;
42430;SDS011;71905;47.466;19.024;2024-02-26T14:19:01;10.63;;;7.20;;
42430;SDS011;71905;47.466;19.024;2024-02-26T14:21:29;10.45;;;7.68;;
42430;SDS011;71905;47.466;19.024;2024-02-26T14:23:58;12.40;;;8.15;;
42430;SDS011;71905;47.466;19.024;2024-02-26T14:26:26;10.82;;;7.68;;
42430;SDS011;71905;47.466;19.024;2024-02-26T14:28:54;13.98;;;10.48;;
42430;SDS011;71905;47.466;19.024;2024-02-26T14:31:24;8.77;;;7.82;;
42430;SDS011;71905;47.466;19.024;2024-02-26T14:33:52;10.73;;;7.72;;